sensor_id;sensor_type;location;lat;lon;timestamp;temperature;humidity
23562;DHT22;11959;49.418;8.728;2023-01-05T00:01:30;11.30;99.90
23562;DHT22;11959;49.418;8.728;2023-01-05T00:03:56;11.30;99.90
23562;DHT22;11959;49.418;8.728;2023-01-05T00:06:22;11.30;99.90
23562;DHT22;11959;49.418;8.728;2023-01-05T00:08:47;11.30;99.90
23562;DHT22;11959;49.418;8.728;2023-01-05T00:11:15;11.20;99.90
23562;DHT22;11959;49.418;8.728;2023-01-05T00:14:00;11.20;99.90
23562;DHT22;11959;49.418;8.728;2023-01-05T00:16:45;11.20;99.90
23562;DHT22;11959;49.418;8.728;2023-01-05T00:19:29;11.20;99.90
23562;DHT22;11959;49.418;8.728;2023-01-05T00:22:24;11.20;99.90
23562;DHT22;11959;49.418;8.728;2023-01-05T00:25:01;11.20;99.90
23562;DHT22;11959;49.418;8.728;2023-01-05T00:27:27;11.10;99.90
23562;DHT22;11959;49.418;8.728;2023-01-05T00:29:53;11.10;99.90
23562;DHT22;11959;49.418;8.728;2023-01-05T00:32:19;11.10;99.90
23562;DHT22;11959;49.418;8.728;2023-01-05T00:34:44;11.10;99.90
23562;DHT22;11959;49.418;8.728;2023-01-05T00:37:10;11.10;99.90
23562;DHT22;11959;49.418;8.728;2023-01-05T00:39:36;11.10;99.90
23562;DHT22;11959;49.418;8.728;2023-01-05T00:42:01;11.10;99.90
23562;DHT22;11959;49.418;8.728;2023-01-05T00:44:27;11.10;99.90
23562;DHT22;11959;49.418;8.728;2023-01-05T00:46:53;11.10;99.90
23562;DHT22;11959;49.418;8.728;2023-01-05T00:49:19;11.10;99.90
23562;DHT22;11959;49.418;8.728;2023-01-05T00:51:44;11.10;99.90
23562;DHT22;11959;49.418;8.728;2023-01-05T00:54:10;11.10;99.90
23562;DHT22;11959;49.418;8.728;2023-01-05T00:56:36;11.10;99.90
23562;DHT22;11959;49.418;8.728;2023-01-05T00:59:01;11.10;99.90
23562;DHT22;11959;49.418;8.728;2023-01-05T01:01:27;11.10;99.90
23562;DHT22;11959;49.418;8.728;2023-01-05T01:03:54;11.10;99.90
23562;DHT22;11959;49.418;8.728;2023-01-05T01:06:19;11.10;99.90
23562;DHT22;11959;49.418;8.728;2023-01-05T01:08:45;11.10;99.90
23562;DHT22;11959;49.418;8.728;2023-01-05T01:11:11;11.10;99.90
23562;DHT22;11959;49.418;8.728;2023-01-05T01:13:37;11.20;99.90
23562;DHT22;11959;49.418;8.728;2023-01-05T01:16:13;11.10;99.90
23562;DHT22;11959;49.418;8.728;2023-01-05T01:18:40;11.10;99.90
23562;DHT22;11959;49.418;8.728;2023-01-05T01:21:07;11.10;99.90
23562;DHT22;11959;49.418;8.728;2023-01-05T01:23:33;11.10;99.90
23562;DHT22;11959;49.418;8.728;2023-01-05T01:26:03;11.10;99.90
23562;DHT22;11959;49.418;8.728;2023-01-05T01:28:29;11.10;99.90
23562;DHT22;11959;49.418;8.728;2023-01-05T01:30:55;11.10;99.90
23562;DHT22;11959;49.418;8.728;2023-01-05T01:33:21;11.10;99.90
23562;DHT22;11959;49.418;8.728;2023-01-05T01:35:47;11.20;99.90
23562;DHT22;11959;49.418;8.728;2023-01-05T01:38:12;11.20;99.90
23562;DHT22;11959;49.418;8.728;2023-01-05T01:40:43;11.20;99.90
23562;DHT22;11959;49.418;8.728;2023-01-05T01:43:14;11.20;99.90
23562;DHT22;11959;49.418;8.728;2023-01-05T01:45:40;11.30;99.90
23562;DHT22;11959;49.418;8.728;2023-01-05T01:48:06;11.20;99.90
23562;DHT22;11959;49.418;8.728;2023-01-05T01:50:37;11.30;99.90
23562;DHT22;11959;49.418;8.728;2023-01-05T01:53:08;11.20;99.90
23562;DHT22;11959;49.418;8.728;2023-01-05T01:55:36;11.20;99.90
23562;DHT22;11959;49.418;8.728;2023-01-05T01:58:06;11.30;99.90
23562;DHT22;11959;49.418;8.728;2023-01-05T02:00:37;11.30;99.90
23562;DHT22;11959;49.418;8.728;2023-01-05T02:03:04;11.30;99.90
23562;DHT22;11959;49.418;8.728;2023-01-05T02:05:31;11.30;99.90
23562;DHT22;11959;49.418;8.728;2023-01-05T02:07:58;11.30;99.90
23562;DHT22;11959;49.418;8.728;2023-01-05T02:10:39;11.20;99.90
23562;DHT22;11959;49.418;8.728;2023-01-05T02:33:38;11.40;99.90
23562;DHT22;11959;49.418;8.728;2023-01-05T02:36:38;11.40;99.90
23562;DHT22;11959;49.418;8.728;2023-01-05T02:44:27;11.40;99.90
23562;DHT22;11959;49.418;8.728;2023-01-05T02:47:03;11.40;99.90
23562;DHT22;11959;49.418;8.728;2023-01-05T02:49:31;11.40;99.90
23562;DHT22;11959;49.418;8.728;2023-01-05T02:51:59;11.40;99.90
23562;DHT22;11959;49.418;8.728;2023-01-05T02:54:43;11.40;99.90
23562;DHT22;11959;49.418;8.728;2023-01-05T02:57:19;11.40;99.90
23562;DHT22;11959;49.418;8.728;2023-01-05T03:00:07;11.40;99.90
23562;DHT22;11959;49.418;8.728;2023-01-05T03:02:34;11.40;99.90
23562;DHT22;11959;49.418;8.728;2023-01-05T03:05:08;11.40;99.90
23562;DHT22;11959;49.418;8.728;2023-01-05T03:07:38;11.40;99.90
23562;DHT22;11959;49.418;8.728;2023-01-05T03:10:05;11.50;99.90
23562;DHT22;11959;49.418;8.728;2023-01-05T03:12:52;11.40;99.90
23562;DHT22;11959;49.418;8.728;2023-01-05T03:15:38;11.40;99.90
23562;DHT22;11959;49.418;8.728;2023-01-05T03:18:09;11.50;99.90
23562;DHT22;11959;49.418;8.728;2023-01-05T03:20:40;11.50;99.90
23562;DHT22;11959;49.418;8.728;2023-01-05T03:23:09;11.50;99.90
23562;DHT22;11959;49.418;8.728;2023-01-05T03:25:54;11.50;99.90
23562;DHT22;11959;49.418;8.728;2023-01-05T03:28:42;11.50;99.90
23562;DHT22;11959;49.418;8.728;2023-01-05T03:31:51;11.50;99.90
23562;DHT22;11959;49.418;8.728;2023-01-05T03:35:03;11.60;99.90
23562;DHT22;11959;49.418;8.728;2023-01-05T03:40:37;11.60;99.90
23562;DHT22;11959;49.418;8.728;2023-01-05T03:43:04;11.50;99.90
23562;DHT22;11959;49.418;8.728;2023-01-05T03:45:54;11.50;99.90
23562;DHT22;11959;49.418;8.728;2023-01-05T03:48:21;11.60;99.90
23562;DHT22;11959;49.418;8.728;2023-01-05T03:50:48;11.60;99.90
23562;DHT22;11959;49.418;8.728;2023-01-05T03:53:13;11.60;99.90
23562;DHT22;11959;49.418;8.728;2023-01-05T03:55:39;11.60;99.90
23562;DHT22;11959;49.418;8.728;2023-01-05T03:58:05;11.60;99.90
23562;DHT22;11959;49.418;8.728;2023-01-05T04:00:30;11.50;99.90
23562;DHT22;11959;49.418;8.728;2023-01-05T04:02:57;11.50;99.90
23562;DHT22;11959;49.418;8.728;2023-01-05T04:05:23;11.40;99.90
23562;DHT22;11959;49.418;8.728;2023-01-05T04:07:49;11.40;99.90
23562;DHT22;11959;49.418;8.728;2023-01-05T04:10:15;11.40;99.90
23562;DHT22;11959;49.418;8.728;2023-01-05T04:12:40;11.40;99.90
23562;DHT22;11959;49.418;8.728;2023-01-05T04:15:07;11.30;99.90
23562;DHT22;11959;49.418;8.728;2023-01-05T04:17:33;11.30;99.90
23562;DHT22;11959;49.418;8.728;2023-01-05T04:19:58;11.30;99.90
23562;DHT22;11959;49.418;8.728;2023-01-05T04:22:24;11.20;99.90
23562;DHT22;11959;49.418;8.728;2023-01-05T04:24:50;11.20;99.90
23562;DHT22;11959;49.418;8.728;2023-01-05T04:27:15;11.20;99.90
23562;DHT22;11959;49.418;8.728;2023-01-05T04:29:41;11.30;99.90
23562;DHT22;11959;49.418;8.728;2023-01-05T04:32:07;11.30;99.90
23562;DHT22;11959;49.418;8.728;2023-01-05T04:34:32;11.30;99.90
23562;DHT22;11959;49.418;8.728;2023-01-05T04:36:58;11.40;99.90
23562;DHT22;11959;49.418;8.728;2023-01-05T04:39:24;11.40;99.90
23562;DHT22;11959;49.418;8.728;2023-01-05T04:41:49;11.50;99.90
23562;DHT22;11959;49.418;8.728;2023-01-05T04:44:15;11.50;99.90
23562;DHT22;11959;49.418;8.728;2023-01-05T04:46:41;11.50;99.90
23562;DHT22;11959;49.418;8.728;2023-01-05T04:49:08;11.50;99.90
23562;DHT22;11959;49.418;8.728;2023-01-05T04:51:34;11.50;99.90
23562;DHT22;11959;49.418;8.728;2023-01-05T04:53:59;11.60;99.90
23562;DHT22;11959;49.418;8.728;2023-01-05T04:56:25;11.50;99.90
23562;DHT22;11959;49.418;8.728;2023-01-05T04:58:51;11.60;99.90
23562;DHT22;11959;49.418;8.728;2023-01-05T05:01:16;11.60;99.90
23562;DHT22;11959;49.418;8.728;2023-01-05T05:03:42;11.60;99.90
23562;DHT22;11959;49.418;8.728;2023-01-05T05:06:08;11.60;99.90
23562;DHT22;11959;49.418;8.728;2023-01-05T05:08:33;11.60;99.90
23562;DHT22;11959;49.418;8.728;2023-01-05T05:10:59;11.50;99.90
23562;DHT22;11959;49.418;8.728;2023-01-05T05:13:25;11.50;99.90
23562;DHT22;11959;49.418;8.728;2023-01-05T05:15:50;11.50;99.90
23562;DHT22;11959;49.418;8.728;2023-01-05T05:18:16;11.50;99.90
23562;DHT22;11959;49.418;8.728;2023-01-05T05:20:43;11.50;99.90
23562;DHT22;11959;49.418;8.728;2023-01-05T05:23:10;11.50;99.90
23562;DHT22;11959;49.418;8.728;2023-01-05T05:25:35;11.50;99.90
23562;DHT22;11959;49.418;8.728;2023-01-05T05:28:01;11.50;99.90
23562;DHT22;11959;49.418;8.728;2023-01-05T05:30:26;11.50;99.90
23562;DHT22;11959;49.418;8.728;2023-01-05T05:32:52;11.50;99.90
23562;DHT22;11959;49.418;8.728;2023-01-05T05:35:18;11.40;99.90
23562;DHT22;11959;49.418;8.728;2023-01-05T05:37:43;11.40;99.90
23562;DHT22;11959;49.418;8.728;2023-01-05T05:40:10;11.40;99.90
23562;DHT22;11959;49.418;8.728;2023-01-05T05:42:36;11.40;99.90
23562;DHT22;11959;49.418;8.728;2023-01-05T05:45:01;11.40;99.90
23562;DHT22;11959;49.418;8.728;2023-01-05T05:47:27;11.40;99.90
23562;DHT22;11959;49.418;8.728;2023-01-05T05:49:53;11.40;99.90
23562;DHT22;11959;49.418;8.728;2023-01-05T05:52:18;11.40;99.90
23562;DHT22;11959;49.418;8.728;2023-01-05T05:54:44;11.40;99.90
23562;DHT22;11959;49.418;8.728;2023-01-05T05:57:10;11.40;99.90
23562;DHT22;11959;49.418;8.728;2023-01-05T05:59:35;11.40;99.90
23562;DHT22;11959;49.418;8.728;2023-01-05T06:02:01;11.40;99.90
23562;DHT22;11959;49.418;8.728;2023-01-05T06:04:27;11.40;99.90
23562;DHT22;11959;49.418;8.728;2023-01-05T06:06:52;11.40;99.90
23562;DHT22;11959;49.418;8.728;2023-01-05T06:09:18;11.40;99.90
23562;DHT22;11959;49.418;8.728;2023-01-05T06:11:43;11.40;99.90
23562;DHT22;11959;49.418;8.728;2023-01-05T06:14:10;11.40;99.90
23562;DHT22;11959;49.418;8.728;2023-01-05T06:16:36;11.30;99.90
23562;DHT22;11959;49.418;8.728;2023-01-05T06:19:01;11.30;99.90
23562;DHT22;11959;49.418;8.728;2023-01-05T06:21:27;11.30;99.90
23562;DHT22;11959;49.418;8.728;2023-01-05T06:23:52;11.30;99.90
23562;DHT22;11959;49.418;8.728;2023-01-05T06:26:18;11.20;99.90
23562;DHT22;11959;49.418;8.728;2023-01-05T06:28:44;11.20;99.90
23562;DHT22;11959;49.418;8.728;2023-01-05T06:31:10;11.20;99.90
23562;DHT22;11959;49.418;8.728;2023-01-05T06:33:35;11.20;99.90
23562;DHT22;11959;49.418;8.728;2023-01-05T06:36:01;11.20;99.90
23562;DHT22;11959;49.418;8.728;2023-01-05T06:38:27;11.20;99.90
23562;DHT22;11959;49.418;8.728;2023-01-05T06:40:52;11.20;99.90
23562;DHT22;11959;49.418;8.728;2023-01-05T06:43:19;11.20;99.90
23562;DHT22;11959;49.418;8.728;2023-01-05T06:45:44;11.20;99.90
23562;DHT22;11959;49.418;8.728;2023-01-05T06:48:10;11.30;99.90
23562;DHT22;11959;49.418;8.728;2023-01-05T06:50:36;11.30;99.90
23562;DHT22;11959;49.418;8.728;2023-01-05T06:53:02;11.30;99.90
23562;DHT22;11959;49.418;8.728;2023-01-05T06:55:28;11.20;99.90
23562;DHT22;11959;49.418;8.728;2023-01-05T06:57:53;11.20;99.90
23562;DHT22;11959;49.418;8.728;2023-01-05T07:00:19;11.20;99.90
23562;DHT22;11959;49.418;8.728;2023-01-05T07:02:44;11.20;99.90
23562;DHT22;11959;49.418;8.728;2023-01-05T07:05:10;11.20;99.90
23562;DHT22;11959;49.418;8.728;2023-01-05T07:07:36;11.10;99.90
23562;DHT22;11959;49.418;8.728;2023-01-05T07:10:02;11.20;99.90
23562;DHT22;11959;49.418;8.728;2023-01-05T07:12:28;11.20;99.90
23562;DHT22;11959;49.418;8.728;2023-01-05T07:14:53;11.20;99.90
23562;DHT22;11959;49.418;8.728;2023-01-05T07:17:19;11.20;99.90
23562;DHT22;11959;49.418;8.728;2023-01-05T07:19:45;11.20;99.90
23562;DHT22;11959;49.418;8.728;2023-01-05T07:22:10;11.10;99.90
23562;DHT22;11959;49.418;8.728;2023-01-05T07:24:36;11.10;99.90
23562;DHT22;11959;49.418;8.728;2023-01-05T07:27:01;11.20;99.90
23562;DHT22;11959;49.418;8.728;2023-01-05T07:29:27;11.10;99.90
23562;DHT22;11959;49.418;8.728;2023-01-05T07:31:53;11.20;99.90
23562;DHT22;11959;49.418;8.728;2023-01-05T07:34:20;11.20;99.90
23562;DHT22;11959;49.418;8.728;2023-01-05T07:36:46;11.10;99.90
23562;DHT22;11959;49.418;8.728;2023-01-05T07:39:12;11.10;99.90
23562;DHT22;11959;49.418;8.728;2023-01-05T07:41:38;11.10;99.90
23562;DHT22;11959;49.418;8.728;2023-01-05T07:44:04;11.10;99.90
23562;DHT22;11959;49.418;8.728;2023-01-05T07:46:29;11.10;99.90
23562;DHT22;11959;49.418;8.728;2023-01-05T07:48:55;11.10;99.90
23562;DHT22;11959;49.418;8.728;2023-01-05T07:51:21;11.10;99.90
23562;DHT22;11959;49.418;8.728;2023-01-05T07:53:47;11.10;99.90
23562;DHT22;11959;49.418;8.728;2023-01-05T07:56:13;11.10;99.90
23562;DHT22;11959;49.418;8.728;2023-01-05T07:58:39;11.10;99.90
23562;DHT22;11959;49.418;8.728;2023-01-05T08:01:11;11.10;99.90
23562;DHT22;11959;49.418;8.728;2023-01-05T08:03:37;11.10;99.90
23562;DHT22;11959;49.418;8.728;2023-01-05T08:06:05;11.20;99.90
23562;DHT22;11959;49.418;8.728;2023-01-05T08:08:31;11.20;99.90
23562;DHT22;11959;49.418;8.728;2023-01-05T08:10:57;11.30;99.90
23562;DHT22;11959;49.418;8.728;2023-01-05T08:13:23;11.30;99.90
23562;DHT22;11959;49.418;8.728;2023-01-05T08:16:07;11.30;99.90
23562;DHT22;11959;49.418;8.728;2023-01-05T08:18:32;11.40;99.90
23562;DHT22;11959;49.418;8.728;2023-01-05T08:21:00;11.40;99.90
23562;DHT22;11959;49.418;8.728;2023-01-05T08:23:29;11.30;99.90
23562;DHT22;11959;49.418;8.728;2023-01-05T08:25:56;11.40;99.90
23562;DHT22;11959;49.418;8.728;2023-01-05T08:28:25;11.40;99.90
23562;DHT22;11959;49.418;8.728;2023-01-05T08:30:51;11.50;99.90
23562;DHT22;11959;49.418;8.728;2023-01-05T08:33:16;11.50;99.90
23562;DHT22;11959;49.418;8.728;2023-01-05T08:35:43;11.50;99.90
23562;DHT22;11959;49.418;8.728;2023-01-05T08:38:10;11.50;99.90
23562;DHT22;11959;49.418;8.728;2023-01-05T08:40:38;11.50;99.90
23562;DHT22;11959;49.418;8.728;2023-01-05T08:43:05;11.50;99.90
23562;DHT22;11959;49.418;8.728;2023-01-05T08:45:31;11.50;99.90
23562;DHT22;11959;49.418;8.728;2023-01-05T08:47:57;11.50;99.90
23562;DHT22;11959;49.418;8.728;2023-01-05T08:50:23;11.50;99.90
23562;DHT22;11959;49.418;8.728;2023-01-05T08:52:49;11.50;99.90
23562;DHT22;11959;49.418;8.728;2023-01-05T08:55:15;11.50;99.90
23562;DHT22;11959;49.418;8.728;2023-01-05T08:57:40;11.60;99.90
23562;DHT22;11959;49.418;8.728;2023-01-05T09:00:06;11.60;99.90
23562;DHT22;11959;49.418;8.728;2023-01-05T09:02:32;11.60;99.90
23562;DHT22;11959;49.418;8.728;2023-01-05T09:04:58;11.70;99.90
23562;DHT22;11959;49.418;8.728;2023-01-05T09:07:25;11.70;99.90
23562;DHT22;11959;49.418;8.728;2023-01-05T09:09:52;11.70;99.90
23562;DHT22;11959;49.418;8.728;2023-01-05T09:12:18;11.70;99.90
23562;DHT22;11959;49.418;8.728;2023-01-05T09:14:44;11.60;99.90
23562;DHT22;11959;49.418;8.728;2023-01-05T09:17:11;11.70;99.90
23562;DHT22;11959;49.418;8.728;2023-01-05T09:19:36;11.70;99.90
23562;DHT22;11959;49.418;8.728;2023-01-05T09:22:02;11.60;99.90
23562;DHT22;11959;49.418;8.728;2023-01-05T09:24:28;11.70;99.90
23562;DHT22;11959;49.418;8.728;2023-01-05T09:26:55;11.70;99.90
23562;DHT22;11959;49.418;8.728;2023-01-05T09:29:21;11.70;99.90
23562;DHT22;11959;49.418;8.728;2023-01-05T09:31:46;11.70;99.90
23562;DHT22;11959;49.418;8.728;2023-01-05T09:34:12;11.70;99.90
23562;DHT22;11959;49.418;8.728;2023-01-05T09:36:39;11.70;99.90
23562;DHT22;11959;49.418;8.728;2023-01-05T09:39:05;11.70;99.90
23562;DHT22;11959;49.418;8.728;2023-01-05T09:41:35;11.70;99.90
23562;DHT22;11959;49.418;8.728;2023-01-05T09:44:05;11.70;99.90
23562;DHT22;11959;49.418;8.728;2023-01-05T09:46:38;11.70;99.90
23562;DHT22;11959;49.418;8.728;2023-01-05T09:49:13;11.70;99.90
23562;DHT22;11959;49.418;8.728;2023-01-05T09:51:40;11.70;99.90
23562;DHT22;11959;49.418;8.728;2023-01-05T09:54:14;11.70;99.90
23562;DHT22;11959;49.418;8.728;2023-01-05T09:56:43;11.70;99.90
23562;DHT22;11959;49.418;8.728;2023-01-05T10:01:46;11.80;99.90
23562;DHT22;11959;49.418;8.728;2023-01-05T10:04:18;11.80;99.90
23562;DHT22;11959;49.418;8.728;2023-01-05T10:06:48;11.80;99.90
23562;DHT22;11959;49.418;8.728;2023-01-05T10:09:19;11.90;99.90
23562;DHT22;11959;49.418;8.728;2023-01-05T10:11:57;11.90;99.90
23562;DHT22;11959;49.418;8.728;2023-01-05T10:14:52;11.90;99.90
23562;DHT22;11959;49.418;8.728;2023-01-05T10:17:21;11.90;99.90
23562;DHT22;11959;49.418;8.728;2023-01-05T10:19:49;11.90;99.90
23562;DHT22;11959;49.418;8.728;2023-01-05T10:22:27;11.90;99.90
23562;DHT22;11959;49.418;8.728;2023-01-05T10:25:38;12.00;99.90
23562;DHT22;11959;49.418;8.728;2023-01-05T10:30:55;12.00;99.90
23562;DHT22;11959;49.418;8.728;2023-01-05T10:33:51;12.10;99.90
23562;DHT22;11959;49.418;8.728;2023-01-05T10:41:46;12.10;99.90
23562;DHT22;11959;49.418;8.728;2023-01-05T10:44:41;12.20;99.90
23562;DHT22;11959;49.418;8.728;2023-01-05T10:47:11;12.10;99.90
23562;DHT22;11959;49.418;8.728;2023-01-05T10:49:40;12.10;99.90
23562;DHT22;11959;49.418;8.728;2023-01-05T10:52:12;12.10;99.90
23562;DHT22;11959;49.418;8.728;2023-01-05T10:57:35;12.20;99.90
23562;DHT22;11959;49.418;8.728;2023-01-05T11:00:09;12.10;99.90
23562;DHT22;11959;49.418;8.728;2023-01-05T11:02:39;12.20;99.90
23562;DHT22;11959;49.418;8.728;2023-01-05T11:07:49;12.20;99.90
23562;DHT22;11959;49.418;8.728;2023-01-05T11:12:59;12.30;99.90
23562;DHT22;11959;49.418;8.728;2023-01-05T11:15:27;12.20;99.90
23562;DHT22;11959;49.418;8.728;2023-01-05T11:17:53;12.20;99.90
23562;DHT22;11959;49.418;8.728;2023-01-05T11:20:20;12.20;99.90
23562;DHT22;11959;49.418;8.728;2023-01-05T11:22:46;12.20;99.90
23562;DHT22;11959;49.418;8.728;2023-01-05T11:28:14;12.30;99.90
23562;DHT22;11959;49.418;8.728;2023-01-05T11:31:01;12.30;99.90
23562;DHT22;11959;49.418;8.728;2023-01-05T11:33:30;12.40;99.90
23562;DHT22;11959;49.418;8.728;2023-01-05T11:35:58;12.40;99.90
23562;DHT22;11959;49.418;8.728;2023-01-05T11:38:26;12.40;99.90
23562;DHT22;11959;49.418;8.728;2023-01-05T11:40:53;12.40;99.90
23562;DHT22;11959;49.418;8.728;2023-01-05T11:43:22;12.40;99.90
23562;DHT22;11959;49.418;8.728;2023-01-05T11:45:52;12.40;99.90
23562;DHT22;11959;49.418;8.728;2023-01-05T11:48:22;12.30;99.90
23562;DHT22;11959;49.418;8.728;2023-01-05T11:50:52;12.30;99.90
23562;DHT22;11959;49.418;8.728;2023-01-05T11:58:45;12.30;99.90
23562;DHT22;11959;49.418;8.728;2023-01-05T12:06:11;12.30;99.90
23562;DHT22;11959;49.418;8.728;2023-01-05T12:08:51;12.30;99.90
23562;DHT22;11959;49.418;8.728;2023-01-05T12:11:20;12.30;99.90
23562;DHT22;11959;49.418;8.728;2023-01-05T12:16:45;12.40;99.90
23562;DHT22;11959;49.418;8.728;2023-01-05T12:25:12;12.40;99.90
23562;DHT22;11959;49.418;8.728;2023-01-05T12:30:30;12.40;99.90
23562;DHT22;11959;49.418;8.728;2023-01-05T12:33:13;12.50;99.90
23562;DHT22;11959;49.418;8.728;2023-01-05T12:48:41;12.60;99.90
23562;DHT22;11959;49.418;8.728;2023-01-05T12:53:58;12.60;99.90
23562;DHT22;11959;49.418;8.728;2023-01-05T12:56:52;12.50;99.90
23562;DHT22;11959;49.418;8.728;2023-01-05T13:04:49;12.50;99.90
23562;DHT22;11959;49.418;8.728;2023-01-05T13:08:16;12.60;99.90
23562;DHT22;11959;49.418;8.728;2023-01-05T13:10:27;12.60;99.90
23562;DHT22;11959;49.418;8.728;2023-01-05T13:13:06;12.60;99.90
23562;DHT22;11959;49.418;8.728;2023-01-05T13:15:38;12.50;99.90
23562;DHT22;11959;49.418;8.728;2023-01-05T13:18:09;12.50;99.90
23562;DHT22;11959;49.418;8.728;2023-01-05T13:20:43;12.50;99.90
23562;DHT22;11959;49.418;8.728;2023-01-05T13:23:19;12.40;99.90
23562;DHT22;11959;49.418;8.728;2023-01-05T13:26:09;12.40;99.90
23562;DHT22;11959;49.418;8.728;2023-01-05T13:28:35;12.40;99.90
23562;DHT22;11959;49.418;8.728;2023-01-05T13:42:10;12.40;99.90
23562;DHT22;11959;49.418;8.728;2023-01-05T13:47:38;12.40;99.90
23562;DHT22;11959;49.418;8.728;2023-01-05T13:50:20;12.30;99.90
23562;DHT22;11959;49.418;8.728;2023-01-05T13:53:26;12.30;99.90
23562;DHT22;11959;49.418;8.728;2023-01-05T13:56:25;12.40;99.90
23562;DHT22;11959;49.418;8.728;2023-01-05T13:59:22;12.30;99.90
23562;DHT22;11959;49.418;8.728;2023-01-05T14:01:48;12.30;99.90
23562;DHT22;11959;49.418;8.728;2023-01-05T14:04:36;12.30;99.90
23562;DHT22;11959;49.418;8.728;2023-01-05T14:07:15;12.30;99.90
23562;DHT22;11959;49.418;8.728;2023-01-05T14:09:50;12.30;99.90
23562;DHT22;11959;49.418;8.728;2023-01-05T14:15:00;12.20;99.90
23562;DHT22;11959;49.418;8.728;2023-01-05T14:26:00;12.20;99.90
23562;DHT22;11959;49.418;8.728;2023-01-05T14:39:06;12.20;99.90
23562;DHT22;11959;49.418;8.728;2023-01-05T14:41:32;12.20;99.90
23562;DHT22;11959;49.418;8.728;2023-01-05T14:44:04;12.10;99.90
23562;DHT22;11959;49.418;8.728;2023-01-05T14:46:50;12.10;99.90
23562;DHT22;11959;49.418;8.728;2023-01-05T14:51:58;12.10;99.90
23562;DHT22;11959;49.418;8.728;2023-01-05T15:00:03;12.10;99.90
23562;DHT22;11959;49.418;8.728;2023-01-05T15:02:41;12.10;99.90
23562;DHT22;11959;49.418;8.728;2023-01-05T15:05:13;12.10;99.90
23562;DHT22;11959;49.418;8.728;2023-01-05T15:08:10;12.10;99.90
23562;DHT22;11959;49.418;8.728;2023-01-05T15:31:06;12.00;99.90
23562;DHT22;11959;49.418;8.728;2023-01-05T15:36:26;12.00;99.90
23562;DHT22;11959;49.418;8.728;2023-01-05T15:38:52;12.00;99.90
23562;DHT22;11959;49.418;8.728;2023-01-05T15:41:20;11.90;99.90
23562;DHT22;11959;49.418;8.728;2023-01-05T15:43:50;11.90;99.90
23562;DHT22;11959;49.418;8.728;2023-01-05T15:46:22;12.00;99.90
23562;DHT22;11959;49.418;8.728;2023-01-05T15:48:53;11.90;99.90
23562;DHT22;11959;49.418;8.728;2023-01-05T15:51:29;11.90;99.90
23562;DHT22;11959;49.418;8.728;2023-01-05T15:53:58;11.90;99.90
23562;DHT22;11959;49.418;8.728;2023-01-05T15:56:36;11.80;99.90
23562;DHT22;11959;49.418;8.728;2023-01-05T15:59:27;11.80;99.90
23562;DHT22;11959;49.418;8.728;2023-01-05T16:01:54;11.80;99.90
23562;DHT22;11959;49.418;8.728;2023-01-05T16:04:20;11.80;99.90
23562;DHT22;11959;49.418;8.728;2023-01-05T16:06:49;11.80;99.90
23562;DHT22;11959;49.418;8.728;2023-01-05T16:09:20;11.80;99.90
23562;DHT22;11959;49.418;8.728;2023-01-05T16:11:48;11.80;99.90
23562;DHT22;11959;49.418;8.728;2023-01-05T16:16:59;11.80;99.90
23562;DHT22;11959;49.418;8.728;2023-01-05T16:19:40;11.70;99.90
23562;DHT22;11959;49.418;8.728;2023-01-05T16:25:15;11.80;99.90
23562;DHT22;11959;49.418;8.728;2023-01-05T16:27:50;11.70;99.90
23562;DHT22;11959;49.418;8.728;2023-01-05T16:30:30;11.70;99.90
23562;DHT22;11959;49.418;8.728;2023-01-05T16:33:04;11.70;99.90
23562;DHT22;11959;49.418;8.728;2023-01-05T16:35:52;11.80;99.90
23562;DHT22;11959;49.418;8.728;2023-01-05T16:38:30;11.80;99.90
23562;DHT22;11959;49.418;8.728;2023-01-05T16:49:00;11.70;99.90
23562;DHT22;11959;49.418;8.728;2023-01-05T16:54:19;11.70;99.90
23562;DHT22;11959;49.418;8.728;2023-01-05T16:56:58;11.70;99.90
23562;DHT22;11959;49.418;8.728;2023-01-05T17:02:43;11.70;99.90
23562;DHT22;11959;49.418;8.728;2023-01-05T17:05:14;11.70;99.90
23562;DHT22;11959;49.418;8.728;2023-01-05T17:07:41;11.70;99.90
23562;DHT22;11959;49.418;8.728;2023-01-05T17:10:28;11.70;99.90
23562;DHT22;11959;49.418;8.728;2023-01-05T17:12:58;11.70;99.90
23562;DHT22;11959;49.418;8.728;2023-01-05T17:15:26;11.70;99.90
23562;DHT22;11959;49.418;8.728;2023-01-05T17:17:54;11.70;99.90
23562;DHT22;11959;49.418;8.728;2023-01-05T17:20:22;11.60;99.90
23562;DHT22;11959;49.418;8.728;2023-01-05T17:22:48;11.60;99.90
23562;DHT22;11959;49.418;8.728;2023-01-05T17:25:14;11.60;99.90
23562;DHT22;11959;49.418;8.728;2023-01-05T17:27:40;11.60;99.90
23562;DHT22;11959;49.418;8.728;2023-01-05T17:30:20;11.60;99.90
23562;DHT22;11959;49.418;8.728;2023-01-05T17:32:46;11.60;99.90
23562;DHT22;11959;49.418;8.728;2023-01-05T17:35:12;11.60;99.90
23562;DHT22;11959;49.418;8.728;2023-01-05T17:37:38;11.70;99.90
23562;DHT22;11959;49.418;8.728;2023-01-05T17:40:05;11.60;99.90
23562;DHT22;11959;49.418;8.728;2023-01-05T17:42:31;11.60;99.90
23562;DHT22;11959;49.418;8.728;2023-01-05T17:45:14;11.60;99.90
23562;DHT22;11959;49.418;8.728;2023-01-05T17:47:40;11.60;99.90
23562;DHT22;11959;49.418;8.728;2023-01-05T17:50:07;11.60;99.90
23562;DHT22;11959;49.418;8.728;2023-01-05T17:52:34;11.60;99.90
23562;DHT22;11959;49.418;8.728;2023-01-05T17:54:59;11.60;99.90
23562;DHT22;11959;49.418;8.728;2023-01-05T17:57:25;11.50;99.90
23562;DHT22;11959;49.418;8.728;2023-01-05T17:59:50;11.50;99.90
23562;DHT22;11959;49.418;8.728;2023-01-05T18:02:16;11.50;99.90
23562;DHT22;11959;49.418;8.728;2023-01-05T18:04:42;11.50;99.90
23562;DHT22;11959;49.418;8.728;2023-01-05T18:07:07;11.50;99.90
23562;DHT22;11959;49.418;8.728;2023-01-05T18:09:33;11.50;99.90
23562;DHT22;11959;49.418;8.728;2023-01-05T18:12:00;11.40;99.90
23562;DHT22;11959;49.418;8.728;2023-01-05T18:14:26;11.50;99.90
23562;DHT22;11959;49.418;8.728;2023-01-05T18:16:51;11.40;99.90
23562;DHT22;11959;49.418;8.728;2023-01-05T18:19:17;11.40;99.90
23562;DHT22;11959;49.418;8.728;2023-01-05T18:21:42;11.50;99.90
23562;DHT22;11959;49.418;8.728;2023-01-05T18:24:08;11.50;99.90
23562;DHT22;11959;49.418;8.728;2023-01-05T18:26:34;11.50;99.90
23562;DHT22;11959;49.418;8.728;2023-01-05T18:28:59;11.50;99.90
23562;DHT22;11959;49.418;8.728;2023-01-05T18:31:25;11.50;99.90
23562;DHT22;11959;49.418;8.728;2023-01-05T18:33:52;11.50;99.90
23562;DHT22;11959;49.418;8.728;2023-01-05T18:36:20;11.50;99.90
23562;DHT22;11959;49.418;8.728;2023-01-05T18:38:45;11.50;99.90
23562;DHT22;11959;49.418;8.728;2023-01-05T18:41:11;11.50;99.90
23562;DHT22;11959;49.418;8.728;2023-01-05T18:43:37;11.50;99.90
23562;DHT22;11959;49.418;8.728;2023-01-05T18:46:03;11.50;99.90
23562;DHT22;11959;49.418;8.728;2023-01-05T18:48:29;11.50;99.90